sensor_id;sensor_type;location;lat;lon;timestamp;temperature;humidity
13346;DHT22;6742;48.036;15.780;2023-12-04T00:02:22;-8.60;99.90
13346;DHT22;6742;48.036;15.780;2023-12-04T00:04:49;-8.50;99.90
13346;DHT22;6742;48.036;15.780;2023-12-04T00:07:15;-8.50;99.90
13346;DHT22;6742;48.036;15.780;2023-12-04T00:09:42;-8.50;99.90
13346;DHT22;6742;48.036;15.780;2023-12-04T00:12:09;-8.50;99.90
13346;DHT22;6742;48.036;15.780;2023-12-04T00:14:36;-8.70;99.90
13346;DHT22;6742;48.036;15.780;2023-12-04T00:17:04;-8.80;99.90
13346;DHT22;6742;48.036;15.780;2023-12-04T00:19:31;-8.80;99.90
13346;DHT22;6742;48.036;15.780;2023-12-04T00:21:58;-8.90;99.90
13346;DHT22;6742;48.036;15.780;2023-12-04T00:24:25;-9.00;99.90
13346;DHT22;6742;48.036;15.780;2023-12-04T00:26:52;-8.90;99.90
13346;DHT22;6742;48.036;15.780;2023-12-04T00:29:19;-8.90;99.90
13346;DHT22;6742;48.036;15.780;2023-12-04T00:31:46;-8.90;99.90
13346;DHT22;6742;48.036;15.780;2023-12-04T00:34:14;-8.80;99.90
13346;DHT22;6742;48.036;15.780;2023-12-04T00:36:41;-8.80;99.90
13346;DHT22;6742;48.036;15.780;2023-12-04T00:39:08;-8.80;99.90
13346;DHT22;6742;48.036;15.780;2023-12-04T00:41:34;-8.90;99.90
13346;DHT22;6742;48.036;15.780;2023-12-04T00:44:01;-9.00;99.90
13346;DHT22;6742;48.036;15.780;2023-12-04T00:46:28;-9.00;99.90
13346;DHT22;6742;48.036;15.780;2023-12-04T00:48:55;-9.10;99.90
13346;DHT22;6742;48.036;15.780;2023-12-04T00:51:26;-9.20;99.90
13346;DHT22;6742;48.036;15.780;2023-12-04T00:53:53;-9.20;99.90
13346;DHT22;6742;48.036;15.780;2023-12-04T00:56:20;-9.20;99.90
13346;DHT22;6742;48.036;15.780;2023-12-04T00:58:47;-9.20;99.90
13346;DHT22;6742;48.036;15.780;2023-12-04T01:01:15;-9.20;99.90
13346;DHT22;6742;48.036;15.780;2023-12-04T01:03:42;-9.10;99.90
13346;DHT22;6742;48.036;15.780;2023-12-04T01:06:10;-9.10;99.90
13346;DHT22;6742;48.036;15.780;2023-12-04T01:08:48;-9.20;99.90
13346;DHT22;6742;48.036;15.780;2023-12-04T01:11:16;-9.30;99.90
13346;DHT22;6742;48.036;15.780;2023-12-04T01:13:45;-9.40;99.90
13346;DHT22;6742;48.036;15.780;2023-12-04T01:16:12;-9.40;99.90
13346;DHT22;6742;48.036;15.780;2023-12-04T01:18:39;-9.40;99.90
13346;DHT22;6742;48.036;15.780;2023-12-04T01:21:06;-9.40;99.90
13346;DHT22;6742;48.036;15.780;2023-12-04T01:23:34;-9.30;99.90
13346;DHT22;6742;48.036;15.780;2023-12-04T01:26:03;-9.30;99.90
13346;DHT22;6742;48.036;15.780;2023-12-04T01:28:30;-9.30;99.90
13346;DHT22;6742;48.036;15.780;2023-12-04T01:30:57;-9.20;99.90
13346;DHT22;6742;48.036;15.780;2023-12-04T01:33:24;-9.20;99.90
13346;DHT22;6742;48.036;15.780;2023-12-04T01:35:51;-9.10;99.90
13346;DHT22;6742;48.036;15.780;2023-12-04T01:38:18;-9.20;99.90
13346;DHT22;6742;48.036;15.780;2023-12-04T01:40:44;-9.20;99.90
13346;DHT22;6742;48.036;15.780;2023-12-04T01:43:13;-9.20;99.90
13346;DHT22;6742;48.036;15.780;2023-12-04T01:45:40;-9.30;99.90
13346;DHT22;6742;48.036;15.780;2023-12-04T01:48:08;-9.40;99.90
13346;DHT22;6742;48.036;15.780;2023-12-04T01:50:35;-9.40;99.90
13346;DHT22;6742;48.036;15.780;2023-12-04T01:53:03;-9.40;99.90
13346;DHT22;6742;48.036;15.780;2023-12-04T01:55:30;-9.40;99.90
13346;DHT22;6742;48.036;15.780;2023-12-04T01:57:59;-9.40;99.90
13346;DHT22;6742;48.036;15.780;2023-12-04T02:00:28;-9.50;99.90
13346;DHT22;6742;48.036;15.780;2023-12-04T02:02:56;-9.60;99.90
13346;DHT22;6742;48.036;15.780;2023-12-04T02:05:23;-9.60;99.90
13346;DHT22;6742;48.036;15.780;2023-12-04T02:07:51;-9.70;99.90
13346;DHT22;6742;48.036;15.780;2023-12-04T02:10:19;-9.70;99.90
13346;DHT22;6742;48.036;15.780;2023-12-04T02:12:46;-9.70;99.90
13346;DHT22;6742;48.036;15.780;2023-12-04T02:15:13;-9.70;99.90
13346;DHT22;6742;48.036;15.780;2023-12-04T02:17:43;-9.70;99.90
13346;DHT22;6742;48.036;15.780;2023-12-04T02:20:12;-9.80;99.90
13346;DHT22;6742;48.036;15.780;2023-12-04T02:22:39;-9.80;99.90
13346;DHT22;6742;48.036;15.780;2023-12-04T02:25:09;-9.80;99.90
13346;DHT22;6742;48.036;15.780;2023-12-04T02:27:39;-9.80;99.90
13346;DHT22;6742;48.036;15.780;2023-12-04T02:30:11;-9.80;99.90
13346;DHT22;6742;48.036;15.780;2023-12-04T02:32:44;-9.80;99.90
13346;DHT22;6742;48.036;15.780;2023-12-04T02:35:12;-9.80;99.90
13346;DHT22;6742;48.036;15.780;2023-12-04T02:37:41;-9.80;99.90
13346;DHT22;6742;48.036;15.780;2023-12-04T02:40:11;-9.80;99.90
13346;DHT22;6742;48.036;15.780;2023-12-04T02:42:39;-9.70;99.90
13346;DHT22;6742;48.036;15.780;2023-12-04T02:45:07;-9.70;99.90
13346;DHT22;6742;48.036;15.780;2023-12-04T02:47:34;-9.60;99.90
13346;DHT22;6742;48.036;15.780;2023-12-04T02:50:04;-9.60;99.90
13346;DHT22;6742;48.036;15.780;2023-12-04T02:52:31;-9.70;99.90
13346;DHT22;6742;48.036;15.780;2023-12-04T02:54:58;-9.80;99.90
13346;DHT22;6742;48.036;15.780;2023-12-04T02:57:26;-9.90;99.90
13346;DHT22;6742;48.036;15.780;2023-12-04T02:59:53;-9.90;99.90
13346;DHT22;6742;48.036;15.780;2023-12-04T03:02:20;-10.00;99.90
13346;DHT22;6742;48.036;15.780;2023-12-04T03:04:47;-10.00;99.90
13346;DHT22;6742;48.036;15.780;2023-12-04T03:07:14;-10.00;99.90
13346;DHT22;6742;48.036;15.780;2023-12-04T03:09:41;-10.10;99.90
13346;DHT22;6742;48.036;15.780;2023-12-04T03:12:08;-10.00;99.90
13346;DHT22;6742;48.036;15.780;2023-12-04T03:14:39;-10.00;99.90
13346;DHT22;6742;48.036;15.780;2023-12-04T03:17:06;-10.10;99.90
13346;DHT22;6742;48.036;15.780;2023-12-04T03:19:33;-10.10;99.90
13346;DHT22;6742;48.036;15.780;2023-12-04T03:22:00;-10.10;99.90
13346;DHT22;6742;48.036;15.780;2023-12-04T03:24:27;-10.10;99.90
13346;DHT22;6742;48.036;15.780;2023-12-04T03:26:54;-10.10;99.90
13346;DHT22;6742;48.036;15.780;2023-12-04T03:29:21;-10.20;99.90
13346;DHT22;6742;48.036;15.780;2023-12-04T03:31:49;-10.20;99.90
13346;DHT22;6742;48.036;15.780;2023-12-04T03:34:16;-10.20;99.90
13346;DHT22;6742;48.036;15.780;2023-12-04T03:36:43;-10.30;99.90
13346;DHT22;6742;48.036;15.780;2023-12-04T03:39:10;-10.40;99.90
13346;DHT22;6742;48.036;15.780;2023-12-04T03:41:37;-10.30;99.90
13346;DHT22;6742;48.036;15.780;2023-12-04T03:44:04;-10.20;99.90
13346;DHT22;6742;48.036;15.780;2023-12-04T03:46:31;-10.20;99.90
13346;DHT22;6742;48.036;15.780;2023-12-04T03:48:59;-10.10;99.90
13346;DHT22;6742;48.036;15.780;2023-12-04T03:51:26;-10.10;99.90
13346;DHT22;6742;48.036;15.780;2023-12-04T03:53:53;-10.10;99.90
13346;DHT22;6742;48.036;15.780;2023-12-04T03:56:20;-10.10;99.90
13346;DHT22;6742;48.036;15.780;2023-12-04T03:58:46;-10.20;99.90
13346;DHT22;6742;48.036;15.780;2023-12-04T04:01:13;-10.30;99.90
13346;DHT22;6742;48.036;15.780;2023-12-04T04:03:40;-10.30;99.90
13346;DHT22;6742;48.036;15.780;2023-12-04T04:06:10;-10.30;99.90
13346;DHT22;6742;48.036;15.780;2023-12-04T04:08:37;-10.30;99.90
13346;DHT22;6742;48.036;15.780;2023-12-04T04:11:04;-10.30;99.90
13346;DHT22;6742;48.036;15.780;2023-12-04T04:13:31;-10.30;99.90
13346;DHT22;6742;48.036;15.780;2023-12-04T04:15:57;-10.30;99.90
13346;DHT22;6742;48.036;15.780;2023-12-04T04:18:24;-10.40;99.90
13346;DHT22;6742;48.036;15.780;2023-12-04T04:20:51;-10.50;99.90
13346;DHT22;6742;48.036;15.780;2023-12-04T04:23:19;-10.50;99.90
13346;DHT22;6742;48.036;15.780;2023-12-04T04:25:46;-10.50;99.90
13346;DHT22;6742;48.036;15.780;2023-12-04T04:28:13;-10.50;99.90
13346;DHT22;6742;48.036;15.780;2023-12-04T04:30:40;-10.50;99.90
13346;DHT22;6742;48.036;15.780;2023-12-04T04:33:07;-10.50;99.90
13346;DHT22;6742;48.036;15.780;2023-12-04T04:35:34;-10.50;99.90
13346;DHT22;6742;48.036;15.780;2023-12-04T04:38:01;-10.50;99.90
13346;DHT22;6742;48.036;15.780;2023-12-04T04:40:29;-10.50;99.90
13346;DHT22;6742;48.036;15.780;2023-12-04T04:42:56;-10.50;99.90
13346;DHT22;6742;48.036;15.780;2023-12-04T04:45:23;-10.40;99.90
13346;DHT22;6742;48.036;15.780;2023-12-04T04:47:49;-10.40;99.90
13346;DHT22;6742;48.036;15.780;2023-12-04T04:50:16;-10.40;99.90
13346;DHT22;6742;48.036;15.780;2023-12-04T04:52:43;-10.40;99.90
13346;DHT22;6742;48.036;15.780;2023-12-04T04:55:10;-10.50;99.90
13346;DHT22;6742;48.036;15.780;2023-12-04T04:57:38;-10.50;99.90
13346;DHT22;6742;48.036;15.780;2023-12-04T05:00:07;-10.50;99.90
13346;DHT22;6742;48.036;15.780;2023-12-04T05:02:34;-10.50;99.90
13346;DHT22;6742;48.036;15.780;2023-12-04T05:05:03;-10.60;99.90
13346;DHT22;6742;48.036;15.780;2023-12-04T05:07:30;-10.60;99.90
13346;DHT22;6742;48.036;15.780;2023-12-04T05:09:56;-10.60;99.90
13346;DHT22;6742;48.036;15.780;2023-12-04T05:12:23;-10.60;99.90
13346;DHT22;6742;48.036;15.780;2023-12-04T05:14:52;-10.70;99.90
13346;DHT22;6742;48.036;15.780;2023-12-04T05:17:18;-10.70;99.90
13346;DHT22;6742;48.036;15.780;2023-12-04T05:19:45;-10.60;99.90
13346;DHT22;6742;48.036;15.780;2023-12-04T05:22:12;-10.60;99.90
13346;DHT22;6742;48.036;15.780;2023-12-04T05:24:39;-10.50;99.90
13346;DHT22;6742;48.036;15.780;2023-12-04T05:27:06;-10.50;99.90
13346;DHT22;6742;48.036;15.780;2023-12-04T05:29:33;-10.60;99.90
13346;DHT22;6742;48.036;15.780;2023-12-04T05:32:01;-10.60;99.90
13346;DHT22;6742;48.036;15.780;2023-12-04T05:34:28;-10.70;99.90
13346;DHT22;6742;48.036;15.780;2023-12-04T05:36:55;-10.70;99.90
13346;DHT22;6742;48.036;15.780;2023-12-04T05:39:22;-10.70;99.90
13346;DHT22;6742;48.036;15.780;2023-12-04T05:41:49;-10.70;99.90
13346;DHT22;6742;48.036;15.780;2023-12-04T05:44:15;-10.60;99.90
13346;DHT22;6742;48.036;15.780;2023-12-04T05:46:42;-10.60;99.90
13346;DHT22;6742;48.036;15.780;2023-12-04T05:49:11;-10.60;99.90
13346;DHT22;6742;48.036;15.780;2023-12-04T05:51:37;-10.60;99.90
13346;DHT22;6742;48.036;15.780;2023-12-04T05:54:04;-10.60;99.90
13346;DHT22;6742;48.036;15.780;2023-12-04T05:56:31;-10.60;99.90
13346;DHT22;6742;48.036;15.780;2023-12-04T05:58:58;-10.60;99.90
13346;DHT22;6742;48.036;15.780;2023-12-04T06:01:25;-10.50;99.90
13346;DHT22;6742;48.036;15.780;2023-12-04T06:03:52;-10.50;99.90
13346;DHT22;6742;48.036;15.780;2023-12-04T06:06:20;-10.60;99.90
13346;DHT22;6742;48.036;15.780;2023-12-04T06:08:47;-10.60;99.90
13346;DHT22;6742;48.036;15.780;2023-12-04T06:11:14;-10.70;99.90
13346;DHT22;6742;48.036;15.780;2023-12-04T06:13:41;-10.70;99.90
13346;DHT22;6742;48.036;15.780;2023-12-04T06:16:08;-10.70;99.90
13346;DHT22;6742;48.036;15.780;2023-12-04T06:18:35;-10.70;99.90
13346;DHT22;6742;48.036;15.780;2023-12-04T06:21:03;-10.70;99.90
13346;DHT22;6742;48.036;15.780;2023-12-04T06:23:32;-10.60;99.90
13346;DHT22;6742;48.036;15.780;2023-12-04T06:26:00;-10.70;99.90
13346;DHT22;6742;48.036;15.780;2023-12-04T06:28:27;-10.70;99.90
13346;DHT22;6742;48.036;15.780;2023-12-04T06:30:54;-10.70;99.90
13346;DHT22;6742;48.036;15.780;2023-12-04T06:33:22;-10.60;99.90
13346;DHT22;6742;48.036;15.780;2023-12-04T06:35:49;-10.50;99.90
13346;DHT22;6742;48.036;15.780;2023-12-04T06:38:19;-10.50;99.90
13346;DHT22;6742;48.036;15.780;2023-12-04T06:40:51;-10.50;99.90
13346;DHT22;6742;48.036;15.780;2023-12-04T06:43:19;-10.40;99.90
13346;DHT22;6742;48.036;15.780;2023-12-04T06:45:46;-10.40;99.90
13346;DHT22;6742;48.036;15.780;2023-12-04T06:48:14;-10.40;99.90
13346;DHT22;6742;48.036;15.780;2023-12-04T06:50:42;-10.50;99.90
13346;DHT22;6742;48.036;15.780;2023-12-04T06:53:08;-10.50;99.90
13346;DHT22;6742;48.036;15.780;2023-12-04T06:55:35;-10.50;99.90
13346;DHT22;6742;48.036;15.780;2023-12-04T06:58:04;-10.50;99.90
13346;DHT22;6742;48.036;15.780;2023-12-04T07:00:30;-10.40;99.90
13346;DHT22;6742;48.036;15.780;2023-12-04T07:02:57;-10.40;99.90
13346;DHT22;6742;48.036;15.780;2023-12-04T07:05:24;-10.40;99.90
13346;DHT22;6742;48.036;15.780;2023-12-04T07:07:51;-10.30;99.90
13346;DHT22;6742;48.036;15.780;2023-12-04T07:10:18;-10.30;99.90
13346;DHT22;6742;48.036;15.780;2023-12-04T07:12:45;-10.20;99.90
13346;DHT22;6742;48.036;15.780;2023-12-04T07:15:13;-10.00;99.90
13346;DHT22;6742;48.036;15.780;2023-12-04T07:17:40;-9.60;99.90
13346;DHT22;6742;48.036;15.780;2023-12-04T07:20:08;-9.00;99.90
13346;DHT22;6742;48.036;15.780;2023-12-04T07:22:37;-8.60;99.90
13346;DHT22;6742;48.036;15.780;2023-12-04T07:25:04;-8.50;99.90
13346;DHT22;6742;48.036;15.780;2023-12-04T07:27:32;-8.50;99.90
13346;DHT22;6742;48.036;15.780;2023-12-04T07:29:59;-8.60;99.90
13346;DHT22;6742;48.036;15.780;2023-12-04T07:32:27;-8.60;99.90
13346;DHT22;6742;48.036;15.780;2023-12-04T07:34:53;-8.70;99.90
13346;DHT22;6742;48.036;15.780;2023-12-04T07:37:20;-8.60;99.90
13346;DHT22;6742;48.036;15.780;2023-12-04T07:39:47;-8.40;99.90
13346;DHT22;6742;48.036;15.780;2023-12-04T07:42:14;-8.20;99.90
13346;DHT22;6742;48.036;15.780;2023-12-04T07:44:41;-7.90;99.90
13346;DHT22;6742;48.036;15.780;2023-12-04T07:47:08;-7.90;99.90
13346;DHT22;6742;48.036;15.780;2023-12-04T07:49:36;-7.90;99.90
13346;DHT22;6742;48.036;15.780;2023-12-04T07:52:03;-7.80;99.90
13346;DHT22;6742;48.036;15.780;2023-12-04T07:54:30;-7.60;99.90
13346;DHT22;6742;48.036;15.780;2023-12-04T07:56:57;-7.20;99.90
13346;DHT22;6742;48.036;15.780;2023-12-04T07:59:24;-6.70;99.90
13346;DHT22;6742;48.036;15.780;2023-12-04T08:01:51;-6.00;99.90
13346;DHT22;6742;48.036;15.780;2023-12-04T08:04:18;-5.30;99.90
13346;DHT22;6742;48.036;15.780;2023-12-04T08:06:49;-4.90;99.90
13346;DHT22;6742;48.036;15.780;2023-12-04T08:09:16;-4.60;99.90
13346;DHT22;6742;48.036;15.780;2023-12-04T08:11:43;-4.40;99.90
13346;DHT22;6742;48.036;15.780;2023-12-04T08:14:10;-4.00;99.90
13346;DHT22;6742;48.036;15.780;2023-12-04T08:16:37;-3.70;99.90
13346;DHT22;6742;48.036;15.780;2023-12-04T08:19:04;-4.00;99.90
13346;DHT22;6742;48.036;15.780;2023-12-04T08:21:31;-4.00;99.90
13346;DHT22;6742;48.036;15.780;2023-12-04T08:23:59;-3.90;99.90
13346;DHT22;6742;48.036;15.780;2023-12-04T08:26:26;-3.80;99.90
13346;DHT22;6742;48.036;15.780;2023-12-04T08:28:53;-3.50;99.90
13346;DHT22;6742;48.036;15.780;2023-12-04T08:31:20;-3.00;99.90
13346;DHT22;6742;48.036;15.780;2023-12-04T08:33:47;-3.10;99.90
13346;DHT22;6742;48.036;15.780;2023-12-04T08:36:15;-2.80;99.90
13346;DHT22;6742;48.036;15.780;2023-12-04T08:38:44;-2.60;99.90
13346;DHT22;6742;48.036;15.780;2023-12-04T08:41:13;-2.40;99.90
13346;DHT22;6742;48.036;15.780;2023-12-04T08:43:40;-2.50;99.90
13346;DHT22;6742;48.036;15.780;2023-12-04T08:46:11;-2.70;99.90
13346;DHT22;6742;48.036;15.780;2023-12-04T08:48:38;-2.80;99.90
13346;DHT22;6742;48.036;15.780;2023-12-04T08:51:05;-2.70;99.90
13346;DHT22;6742;48.036;15.780;2023-12-04T08:53:33;-2.50;99.90
13346;DHT22;6742;48.036;15.780;2023-12-04T08:56:00;-2.60;99.90
13346;DHT22;6742;48.036;15.780;2023-12-04T08:58:29;-2.60;99.90
13346;DHT22;6742;48.036;15.780;2023-12-04T09:00:56;-2.60;99.90
13346;DHT22;6742;48.036;15.780;2023-12-04T09:03:23;-2.90;99.90
13346;DHT22;6742;48.036;15.780;2023-12-04T09:05:50;-3.00;99.90
13346;DHT22;6742;48.036;15.780;2023-12-04T09:08:17;-2.70;99.90
13346;DHT22;6742;48.036;15.780;2023-12-04T09:10:46;-2.60;99.90
13346;DHT22;6742;48.036;15.780;2023-12-04T09:13:13;-2.60;99.90
13346;DHT22;6742;48.036;15.780;2023-12-04T09:15:42;-2.60;99.90
13346;DHT22;6742;48.036;15.780;2023-12-04T09:18:09;-2.60;99.90
13346;DHT22;6742;48.036;15.780;2023-12-04T09:20:36;-2.60;99.90
13346;DHT22;6742;48.036;15.780;2023-12-04T09:23:02;-2.60;99.90
13346;DHT22;6742;48.036;15.780;2023-12-04T09:25:29;-2.50;99.90
13346;DHT22;6742;48.036;15.780;2023-12-04T09:27:56;-2.30;99.90
13346;DHT22;6742;48.036;15.780;2023-12-04T09:30:23;-2.30;99.90
13346;DHT22;6742;48.036;15.780;2023-12-04T09:32:51;-2.20;99.90
13346;DHT22;6742;48.036;15.780;2023-12-04T09:35:18;-1.90;99.90
13346;DHT22;6742;48.036;15.780;2023-12-04T09:37:45;-1.80;99.90
13346;DHT22;6742;48.036;15.780;2023-12-04T09:40:14;-1.90;99.90
13346;DHT22;6742;48.036;15.780;2023-12-04T09:42:42;-2.30;99.90
13346;DHT22;6742;48.036;15.780;2023-12-04T09:45:09;-2.40;99.90
13346;DHT22;6742;48.036;15.780;2023-12-04T09:47:36;-2.80;99.90
13346;DHT22;6742;48.036;15.780;2023-12-04T09:50:06;-2.80;99.90
13346;DHT22;6742;48.036;15.780;2023-12-04T09:52:34;-2.90;99.90
13346;DHT22;6742;48.036;15.780;2023-12-04T09:55:01;-3.10;99.90
13346;DHT22;6742;48.036;15.780;2023-12-04T09:57:29;-3.20;99.90
13346;DHT22;6742;48.036;15.780;2023-12-04T09:59:58;-3.00;99.90
13346;DHT22;6742;48.036;15.780;2023-12-04T10:02:27;-2.90;99.90
13346;DHT22;6742;48.036;15.780;2023-12-04T10:04:54;-2.90;99.90
13346;DHT22;6742;48.036;15.780;2023-12-04T10:07:22;-2.80;99.90
13346;DHT22;6742;48.036;15.780;2023-12-04T10:09:49;-2.70;99.90
13346;DHT22;6742;48.036;15.780;2023-12-04T10:12:19;-2.80;99.90
13346;DHT22;6742;48.036;15.780;2023-12-04T10:15:03;-2.80;99.90
13346;DHT22;6742;48.036;15.780;2023-12-04T10:17:33;-2.90;99.90
13346;DHT22;6742;48.036;15.780;2023-12-04T10:20:05;-2.90;99.90
13346;DHT22;6742;48.036;15.780;2023-12-04T10:22:39;-2.90;99.90
13346;DHT22;6742;48.036;15.780;2023-12-04T10:25:16;-2.80;99.90
13346;DHT22;6742;48.036;15.780;2023-12-04T10:27:43;-2.90;99.90
13346;DHT22;6742;48.036;15.780;2023-12-04T10:30:22;-3.00;99.90
13346;DHT22;6742;48.036;15.780;2023-12-04T10:32:52;-2.80;99.90
13346;DHT22;6742;48.036;15.780;2023-12-04T10:35:20;-2.70;99.90
13346;DHT22;6742;48.036;15.780;2023-12-04T10:37:52;-2.60;99.90
13346;DHT22;6742;48.036;15.780;2023-12-04T10:40:23;-2.60;99.90
13346;DHT22;6742;48.036;15.780;2023-12-04T10:42:50;-2.60;99.90
13346;DHT22;6742;48.036;15.780;2023-12-04T10:45:17;-2.50;99.90
13346;DHT22;6742;48.036;15.780;2023-12-04T10:47:48;-2.70;99.90
13346;DHT22;6742;48.036;15.780;2023-12-04T10:50:16;-2.80;99.90
13346;DHT22;6742;48.036;15.780;2023-12-04T10:52:44;-2.80;99.90
13346;DHT22;6742;48.036;15.780;2023-12-04T10:55:14;-2.60;99.90
13346;DHT22;6742;48.036;15.780;2023-12-04T10:57:43;-2.70;99.90
13346;DHT22;6742;48.036;15.780;2023-12-04T11:00:13;-2.80;99.90
13346;DHT22;6742;48.036;15.780;2023-12-04T11:02:43;-2.90;99.90
13346;DHT22;6742;48.036;15.780;2023-12-04T11:05:14;-3.00;99.90
13346;DHT22;6742;48.036;15.780;2023-12-04T11:07:46;-3.10;99.90
13346;DHT22;6742;48.036;15.780;2023-12-04T11:10:16;-3.10;99.90
13346;DHT22;6742;48.036;15.780;2023-12-04T11:12:45;-3.10;99.90
13346;DHT22;6742;48.036;15.780;2023-12-04T11:15:15;-3.20;99.90
13346;DHT22;6742;48.036;15.780;2023-12-04T11:17:43;-3.20;99.90
13346;DHT22;6742;48.036;15.780;2023-12-04T11:20:16;-3.10;99.90
13346;DHT22;6742;48.036;15.780;2023-12-04T11:22:45;-2.90;99.90
13346;DHT22;6742;48.036;15.780;2023-12-04T11:25:15;-2.90;99.90
13346;DHT22;6742;48.036;15.780;2023-12-04T11:27:43;-2.80;99.90
13346;DHT22;6742;48.036;15.780;2023-12-04T11:30:11;-2.70;99.90
13346;DHT22;6742;48.036;15.780;2023-12-04T11:32:44;-2.70;99.90
13346;DHT22;6742;48.036;15.780;2023-12-04T11:35:13;-2.70;99.90
13346;DHT22;6742;48.036;15.780;2023-12-04T11:37:41;-2.80;99.90
13346;DHT22;6742;48.036;15.780;2023-12-04T11:40:11;-2.70;99.90
13346;DHT22;6742;48.036;15.780;2023-12-04T11:42:40;-2.60;99.90
13346;DHT22;6742;48.036;15.780;2023-12-04T11:45:08;-2.60;99.90
13346;DHT22;6742;48.036;15.780;2023-12-04T11:47:51;-2.60;99.90
13346;DHT22;6742;48.036;15.780;2023-12-04T11:50:20;-2.60;99.90
13346;DHT22;6742;48.036;15.780;2023-12-04T11:52:48;-2.60;99.90
13346;DHT22;6742;48.036;15.780;2023-12-04T11:55:20;-2.60;99.90
13346;DHT22;6742;48.036;15.780;2023-12-04T11:57:49;-2.60;99.90
13346;DHT22;6742;48.036;15.780;2023-12-04T12:00:21;-2.50;99.90
13346;DHT22;6742;48.036;15.780;2023-12-04T12:03:01;-2.40;99.90
13346;DHT22;6742;48.036;15.780;2023-12-04T12:05:30;-2.50;99.90
13346;DHT22;6742;48.036;15.780;2023-12-04T12:08:03;-2.60;99.90
13346;DHT22;6742;48.036;15.780;2023-12-04T12:10:30;-2.60;99.90
13346;DHT22;6742;48.036;15.780;2023-12-04T12:13:01;-2.60;99.90
13346;DHT22;6742;48.036;15.780;2023-12-04T12:15:28;-2.60;99.90
13346;DHT22;6742;48.036;15.780;2023-12-04T12:17:55;-2.70;99.90
13346;DHT22;6742;48.036;15.780;2023-12-04T12:20:22;-2.60;99.90
13346;DHT22;6742;48.036;15.780;2023-12-04T12:22:49;-2.70;99.90
13346;DHT22;6742;48.036;15.780;2023-12-04T12:25:17;-2.60;99.90
13346;DHT22;6742;48.036;15.780;2023-12-04T12:27:45;-2.50;99.90
13346;DHT22;6742;48.036;15.780;2023-12-04T12:30:13;-2.60;99.90
13346;DHT22;6742;48.036;15.780;2023-12-04T12:32:40;-2.50;99.90
13346;DHT22;6742;48.036;15.780;2023-12-04T12:35:07;-2.50;99.90
13346;DHT22;6742;48.036;15.780;2023-12-04T12:37:35;-2.60;99.90
13346;DHT22;6742;48.036;15.780;2023-12-04T12:40:04;-2.50;99.90
13346;DHT22;6742;48.036;15.780;2023-12-04T12:42:35;-2.50;99.90
13346;DHT22;6742;48.036;15.780;2023-12-04T12:45:02;-2.40;99.90
13346;DHT22;6742;48.036;15.780;2023-12-04T12:47:31;-2.20;99.90
13346;DHT22;6742;48.036;15.780;2023-12-04T12:50:00;-2.20;99.90
13346;DHT22;6742;48.036;15.780;2023-12-04T12:52:28;-2.10;99.90
13346;DHT22;6742;48.036;15.780;2023-12-04T12:54:55;-2.10;99.90
13346;DHT22;6742;48.036;15.780;2023-12-04T12:57:22;-2.10;99.90
13346;DHT22;6742;48.036;15.780;2023-12-04T12:59:51;-2.00;99.90
13346;DHT22;6742;48.036;15.780;2023-12-04T13:02:20;-2.00;99.90
13346;DHT22;6742;48.036;15.780;2023-12-04T13:04:48;-2.00;99.90
13346;DHT22;6742;48.036;15.780;2023-12-04T13:07:17;-1.90;99.90
13346;DHT22;6742;48.036;15.780;2023-12-04T13:09:44;-1.90;99.90
13346;DHT22;6742;48.036;15.780;2023-12-04T13:12:11;-1.80;99.90
13346;DHT22;6742;48.036;15.780;2023-12-04T13:14:39;-1.80;99.90
13346;DHT22;6742;48.036;15.780;2023-12-04T13:17:06;-1.80;99.90
13346;DHT22;6742;48.036;15.780;2023-12-04T13:19:34;-1.70;99.90
13346;DHT22;6742;48.036;15.780;2023-12-04T13:22:03;-1.70;99.90
13346;DHT22;6742;48.036;15.780;2023-12-04T13:24:30;-1.60;99.90
13346;DHT22;6742;48.036;15.780;2023-12-04T13:26:57;-1.60;99.90
13346;DHT22;6742;48.036;15.780;2023-12-04T13:29:24;-1.60;99.90
13346;DHT22;6742;48.036;15.780;2023-12-04T13:31:51;-1.60;99.90
13346;DHT22;6742;48.036;15.780;2023-12-04T13:34:18;-1.50;99.90
13346;DHT22;6742;48.036;15.780;2023-12-04T13:36:45;-1.50;99.90
13346;DHT22;6742;48.036;15.780;2023-12-04T13:39:16;-1.50;99.90
13346;DHT22;6742;48.036;15.780;2023-12-04T13:41:48;-1.40;99.90
13346;DHT22;6742;48.036;15.780;2023-12-04T13:44:32;-1.40;99.90
13346;DHT22;6742;48.036;15.780;2023-12-04T13:46:59;-1.40;99.90
13346;DHT22;6742;48.036;15.780;2023-12-04T13:49:26;-1.40;99.90
13346;DHT22;6742;48.036;15.780;2023-12-04T13:51:53;-1.40;99.90
13346;DHT22;6742;48.036;15.780;2023-12-04T13:54:22;-1.40;99.90
13346;DHT22;6742;48.036;15.780;2023-12-04T13:57:00;-1.40;99.90
13346;DHT22;6742;48.036;15.780;2023-12-04T13:59:29;-1.40;99.90
13346;DHT22;6742;48.036;15.780;2023-12-04T14:01:59;-1.30;99.90
13346;DHT22;6742;48.036;15.780;2023-12-04T14:04:28;-1.30;99.90
13346;DHT22;6742;48.036;15.780;2023-12-04T14:06:55;-1.30;99.90
13346;DHT22;6742;48.036;15.780;2023-12-04T14:09:24;-1.30;99.90
13346;DHT22;6742;48.036;15.780;2023-12-04T14:11:50;-1.30;99.90
13346;DHT22;6742;48.036;15.780;2023-12-04T14:14:17;-1.30;99.90
13346;DHT22;6742;48.036;15.780;2023-12-04T14:16:44;-1.30;99.90
13346;DHT22;6742;48.036;15.780;2023-12-04T14:19:12;-1.30;99.90
13346;DHT22;6742;48.036;15.780;2023-12-04T14:21:42;-1.30;99.90
13346;DHT22;6742;48.036;15.780;2023-12-04T14:24:09;-1.20;99.90
13346;DHT22;6742;48.036;15.780;2023-12-04T14:26:38;-1.20;99.90
13346;DHT22;6742;48.036;15.780;2023-12-04T14:29:05;-1.20;99.90
13346;DHT22;6742;48.036;15.780;2023-12-04T14:31:33;-1.20;99.90
13346;DHT22;6742;48.036;15.780;2023-12-04T14:34:00;-1.30;99.90
13346;DHT22;6742;48.036;15.780;2023-12-04T14:36:28;-1.30;99.90
13346;DHT22;6742;48.036;15.780;2023-12-04T14:38:57;-1.30;99.90
13346;DHT22;6742;48.036;15.780;2023-12-04T14:41:24;-1.40;99.90
13346;DHT22;6742;48.036;15.780;2023-12-04T14:43:53;-1.40;99.90
13346;DHT22;6742;48.036;15.780;2023-12-04T14:46:20;-1.50;99.90
13346;DHT22;6742;48.036;15.780;2023-12-04T14:48:47;-1.50;99.90
13346;DHT22;6742;48.036;15.780;2023-12-04T14:51:15;-1.50;99.90
13346;DHT22;6742;48.036;15.780;2023-12-04T14:53:42;-1.50;99.90
13346;DHT22;6742;48.036;15.780;2023-12-04T14:56:16;-1.60;99.90
13346;DHT22;6742;48.036;15.780;2023-12-04T14:58:53;-1.60;99.90
13346;DHT22;6742;48.036;15.780;2023-12-04T15:02:04;-1.60;99.90
13346;DHT22;6742;48.036;15.780;2023-12-04T15:05:00;-1.70;99.90
13346;DHT22;6742;48.036;15.780;2023-12-04T15:07:41;-1.70;99.90
13346;DHT22;6742;48.036;15.780;2023-12-04T15:10:28;-1.70;99.90
13346;DHT22;6742;48.036;15.780;2023-12-04T15:13:09;-1.80;99.90
13346;DHT22;6742;48.036;15.780;2023-12-04T15:16:06;-1.80;99.90
13346;DHT22;6742;48.036;15.780;2023-12-04T15:18:56;-1.80;99.90
13346;DHT22;6742;48.036;15.780;2023-12-04T15:21:41;-1.80;99.90
13346;DHT22;6742;48.036;15.780;2023-12-04T15:24:07;-1.80;99.90
13346;DHT22;6742;48.036;15.780;2023-12-04T15:26:34;-1.80;99.90
13346;DHT22;6742;48.036;15.780;2023-12-04T15:29:01;-1.80;99.90
13346;DHT22;6742;48.036;15.780;2023-12-04T15:31:31;-1.80;99.90
13346;DHT22;6742;48.036;15.780;2023-12-04T15:33:58;-1.80;99.90
13346;DHT22;6742;48.036;15.780;2023-12-04T15:36:24;-1.80;99.90